createdAt,value
2023-11-15T00:02:17.152Z,9.6
2023-11-15T00:07:37.086Z,9.6
2023-11-15T00:12:57.392Z,9.6
2023-11-15T00:19:31.722Z,9.6
2023-11-15T00:23:46.197Z,9.6
2023-11-15T00:28:54.999Z,9.59
2023-11-15T00:39:33.191Z,9.59
2023-11-15T00:44:52.775Z,9.57
2023-11-15T00:55:30.933Z,9.57
2023-11-15T01:00:49.781Z,9.54
2023-11-15T01:06:09.287Z,9.53
2023-11-15T01:11:30.230Z,9.56
2023-11-15T01:16:47.905Z,9.53
2023-11-15T01:22:07.869Z,9.51
2023-11-15T01:27:27.666Z,9.51
2023-11-15T01:38:05.697Z,9.5
2023-11-15T01:43:25.644Z,9.51
2023-11-15T01:48:44.638Z,9.5
2023-11-15T01:54:04.654Z,9.53
2023-11-15T01:59:23.751Z,9.49
2023-11-15T02:04:45.147Z,9.49
2023-11-15T02:10:02.431Z,9.5
2023-11-15T02:15:21.791Z,9.49
2023-11-15T02:20:40.976Z,9.49
2023-11-15T02:36:39.723Z,9.47
2023-11-15T02:41:58.574Z,9.46
2023-11-15T02:47:17.882Z,9.43
2023-11-15T02:52:37.501Z,9.42
2023-11-15T02:57:56.867Z,9.39
2023-11-15T03:03:16.480Z,9.39
2023-11-15T03:08:36.012Z,9.39
2023-11-15T03:19:13.455Z,9.39
2023-11-15T03:24:32.771Z,9.39
2023-11-15T03:29:52.253Z,9.35
2023-11-15T03:35:11.796Z,9.37
2023-11-15T03:40:31.380Z,9.37
2023-11-15T03:45:50.476Z,9.35
2023-11-15T03:51:09.965Z,9.33
2023-11-15T03:56:29.357Z,9.35
2023-11-15T04:01:52.176Z,9.35
2023-11-15T04:07:07.806Z,9.32
2023-11-15T04:12:27.028Z,9.32
2023-11-15T04:17:46.034Z,9.3
2023-11-15T04:23:05.560Z,9.27
2023-11-15T04:28:24.672Z,9.26
2023-11-15T04:33:43.595Z,9.22
2023-11-15T04:44:22.122Z,9.22
2023-11-15T04:49:41.168Z,9.18
2023-11-15T04:54:59.992Z,9.18
2023-11-15T05:00:19.177Z,9.18
2023-11-15T05:05:38.877Z,9.16
2023-11-15T05:10:58.363Z,9.14
2023-11-15T05:16:17.524Z,9.13
2023-11-15T05:21:37.134Z,9.1
2023-11-15T05:26:56.944Z,9.1
2023-11-15T05:32:15.953Z,9.06
2023-11-15T05:37:35.973Z,9.09
2023-11-15T05:42:54.497Z,9.06
2023-11-15T05:48:13.757Z,9.08
2023-11-15T05:53:33.225Z,9.06
2023-11-15T05:58:52.523Z,9.05
2023-11-15T06:04:12.480Z,9.05
2023-11-15T06:09:30.977Z,9.03
2023-11-15T06:14:50.162Z,9.02
2023-11-15T06:20:08.825Z,9.02
2023-11-15T06:25:27.746Z,8.97
2023-11-15T06:30:47.528Z,8.99
2023-11-15T06:36:06.846Z,8.97
2023-11-15T06:41:25.401Z,8.97
2023-11-15T06:46:44.537Z,8.97
2023-11-15T06:52:03.726Z,8.93
2023-11-15T06:57:23.346Z,8.96
2023-11-15T07:02:43.328Z,8.96
2023-11-15T07:08:02.169Z,8.96
2023-11-15T07:18:40.577Z,8.95
2023-11-15T07:24:00.357Z,8.93
2023-11-15T07:29:19.236Z,8.95
2023-11-15T07:34:38.841Z,8.95
2023-11-15T07:45:17.268Z,8.97
2023-11-15T07:50:37.097Z,8.97
2023-11-15T07:55:56.797Z,8.97
2023-11-15T08:01:15.705Z,9.01
2023-11-15T08:06:34.649Z,9.01
2023-11-15T08:11:54.179Z,9.03
2023-11-15T08:17:13.142Z,9.05
2023-11-15T08:22:32.433Z,9.05
2023-11-15T08:27:51.530Z,9.1
2023-11-15T08:33:11.897Z,9.12
2023-11-15T08:43:49.384Z,9.16
2023-11-15T08:54:28.492Z,9.25
2023-11-15T09:05:32.877Z,9.29
2023-11-15T09:16:12.508Z,9.35
2023-11-15T09:21:31.197Z,9.43
2023-11-15T09:32:09.332Z,9.54
2023-11-15T09:37:28.995Z,9.64
2023-11-15T09:42:48.130Z,9.76
2023-11-15T09:48:08.531Z,9.81
2023-11-15T09:53:27.634Z,9.91
2023-11-15T09:58:45.577Z,9.97
2023-11-15T10:04:05.626Z,10.07
2023-11-15T10:14:44.091Z,10.21
2023-11-15T10:21:19.650Z,10.25
2023-11-15T10:25:23.094Z,10.3
2023-11-15T10:32:21.647Z,10.38
2023-11-15T10:41:22.428Z,10.49
2023-11-15T10:46:39.698Z,10.56
2023-11-15T10:57:18.299Z,10.62
2023-11-15T11:07:55.430Z,10.75
2023-11-15T11:13:15.054Z,10.73
2023-11-15T11:23:55.000Z,10.79
2023-11-15T11:30:53.580Z,10.8
2023-11-15T11:34:32.712Z,10.82
2023-11-15T11:39:52.071Z,10.82
2023-11-15T11:45:11.138Z,10.8
2023-11-15T11:55:50.207Z,10.83
2023-11-15T12:06:27.780Z,10.86
2023-11-15T12:11:47.030Z,10.85
2023-11-15T12:17:06.651Z,10.83
2023-11-15T12:22:25.994Z,10.83
2023-11-15T12:33:04.657Z,10.82
2023-11-15T12:38:24.599Z,10.85
2023-11-15T12:43:42.183Z,10.83
2023-11-15T12:49:02.048Z,10.82
2023-11-15T12:54:21.521Z,10.82
2023-11-15T12:59:41.247Z,10.8
2023-11-15T13:04:59.078Z,10.86
2023-11-15T13:10:18.222Z,10.86
2023-11-15T13:15:37.658Z,10.86
2023-11-15T13:20:56.832Z,10.83
2023-11-15T13:26:16.107Z,10.85
2023-11-15T13:31:35.287Z,10.82
2023-11-15T13:42:14.298Z,10.82
2023-11-15T13:47:33.514Z,10.82
2023-11-15T13:58:11.983Z,10.88
2023-11-15T14:03:31.347Z,10.88
2023-11-15T14:14:09.782Z,10.89
2023-11-15T14:24:48.432Z,10.89
2023-11-15T14:30:07.447Z,10.88
2023-11-15T14:35:26.685Z,10.89
2023-11-15T14:40:46.241Z,10.86
2023-11-15T14:46:05.426Z,10.89
2023-11-15T14:56:43.930Z,10.83
2023-11-15T15:02:02.948Z,10.85
2023-11-15T15:07:21.659Z,10.8
2023-11-15T15:12:41.040Z,10.79
2023-11-15T15:18:00.819Z,10.83
2023-11-15T15:23:19.679Z,10.79
2023-11-15T15:28:39.544Z,10.76
2023-11-15T15:39:18.959Z,10.72
2023-11-15T15:55:15.146Z,10.65
2023-11-15T16:05:53.755Z,10.62
2023-11-15T16:11:13.042Z,10.59
2023-11-15T16:16:32.697Z,10.56
2023-11-15T16:21:53.080Z,10.54
2023-11-15T16:27:13.676Z,10.52
2023-11-15T16:32:30.902Z,10.51
2023-11-15T16:37:51.222Z,10.48
2023-11-15T16:43:12.233Z,10.45
2023-11-15T16:48:29.465Z,10.41
2023-11-15T16:53:49.210Z,10.38
2023-11-15T16:59:08.748Z,10.37
2023-11-15T17:04:26.999Z,10.34
2023-11-15T17:09:46.183Z,10.3
2023-11-15T17:20:24.073Z,10.27
2023-11-15T17:25:43.809Z,10.24
2023-11-15T17:31:02.536Z,10.24
2023-11-15T17:36:21.335Z,10.2
2023-11-15T17:41:40.206Z,10.2
2023-11-15T17:46:59.404Z,10.17
2023-11-15T17:52:17.975Z,10.14
2023-11-15T17:57:37.560Z,10.1
2023-11-15T18:02:56.655Z,10.08
2023-11-15T18:08:15.680Z,10.07
2023-11-15T18:13:34.453Z,10.04
2023-11-15T18:18:53.406Z,10.01
2023-11-15T18:24:12.738Z,10
2023-11-15T18:29:31.760Z,9.97
2023-11-15T18:34:50.911Z,9.93
2023-11-15T18:40:09.921Z,9.91
2023-11-15T18:45:29.895Z,9.89
2023-11-15T18:50:48.428Z,9.91
2023-11-15T19:01:27.370Z,9.85
2023-11-15T19:06:46.591Z,9.84
2023-11-15T19:12:06.329Z,9.84
2023-11-15T19:17:24.544Z,9.83
2023-11-15T19:22:43.649Z,9.79
2023-11-15T19:28:02.851Z,9.8
2023-11-15T19:33:22.388Z,9.8
2023-11-15T19:38:41.617Z,9.8
2023-11-15T19:44:01.393Z,9.77
2023-11-15T19:49:20.264Z,9.76
2023-11-15T19:54:39.599Z,9.76
2023-11-15T19:59:58.772Z,9.76
2023-11-15T20:05:18.577Z,9.72
2023-11-15T20:10:37.673Z,9.72
2023-11-15T20:21:16.919Z,9.68
2023-11-15T20:26:36.621Z,9.68
2023-11-15T20:31:55.785Z,9.7
2023-11-15T20:37:15.121Z,9.67
2023-11-15T20:47:53.839Z,9.67
2023-11-15T20:53:12.152Z,9.66
2023-11-15T20:58:31.785Z,9.64
2023-11-15T21:03:52.035Z,9.6
2023-11-15T21:09:10.768Z,9.63
2023-11-15T21:14:29.483Z,9.6
2023-11-15T21:19:48.226Z,9.6
2023-11-15T21:25:07.893Z,9.59
2023-11-15T21:30:27.053Z,9.6
2023-11-15T21:35:47.593Z,9.6
2023-11-15T21:46:25.224Z,9.56
2023-11-15T21:51:44.502Z,9.57
2023-11-15T21:57:03.724Z,9.57
2023-11-15T22:02:22.795Z,9.53
2023-11-15T22:13:01.683Z,9.51
2023-11-15T22:18:19.827Z,9.53
2023-11-15T22:23:39.043Z,9.5
2023-11-15T22:28:58.544Z,9.49
2023-11-15T22:34:17.172Z,9.5
2023-11-15T22:44:55.913Z,9.47
2023-11-15T22:50:15.475Z,9.46
2023-11-15T22:55:35.890Z,9.46
2023-11-15T23:00:54.229Z,9.47
2023-11-15T23:06:13.617Z,9.47
2023-11-15T23:11:32.841Z,9.43
2023-11-15T23:16:52.403Z,9.43
2023-11-15T23:27:30.840Z,9.43
2023-11-15T23:32:50.268Z,9.43
2023-11-15T23:38:09.597Z,9.42
2023-11-15T23:43:28.577Z,9.42
2023-11-15T23:48:48.122Z,9.39
2023-11-15T23:54:07.035Z,9.37
2023-11-15T23:59:26.760Z,9.37
